Hartsfield Jackson Atlanta International Airport
KATL : rendu visible

Aérodrome :











RETROUVEZ-NOUS SUR...

 
LOGIN :

S'inscrire | Disclaimer

   EN    FR    IT 

 









Légende :    VFR   VFR Marginal   IFR   IFR Intensif   IFR Très Intensif
Visi : 
Plafond : 
>= 8 km
>= 3000ft
5 à 8 km
1000 à 3000 ft
1500m à 5 km
500 à 1000 ft
800 à 1500m
200 à 500 ft
< 800m
< 200 ft
Symboles :   Orages  Brouillard  Fortes neiges  Fortes précipitations  Vent > 20 kt






- Altitude de l'aérodrome : 1026 ft
- Code IATA : ATL


KATL - Hartsfield Jackson Atlanta International

DERNIER METAR :
  • 212252Z 35008KT 10SM CLR 03/M10 A3036 RMK AO2 SLP293 T00281100

METARs EXPIRÉS :
  • 212152Z 34011KT 10SM CLR 04/M09 A3036 RMK AO2 SLP292 T00391089
  • 212052Z 34010G16KT 10SM FEW060 04/M08 A3037 RMK AO2 SLP294 T00441083 56017

TAF KATL
Valide du 21 à 22h jusqu'au 23 à 00h UTC


212134Z 2122/2224 35011KT P6SM SKC
FM220800 03004KT P6SM SKC
FM221400 07009KT P6SM FEW250



MET'MAP, la Météo Aéronautique d'un coup d'oeil ! - Copyright ORBIFLY Décembre 2007 - Disclaimer

ORBIFLY MET'MAP TEAM :

Programmation & Développement : Alexandra Zaïnal
Sur une idée originale de : Baudouin d'Aumeries
Assistance à la programmation : Marc-Olivier Méhu
Soutien technique & logistique : Manuel Goepfert

Contact : metmap@orbifly.com




SOURCES & CREDITS :

   NOAA       Earth
Advisory